Time;durP1;ratioP1;P1;durP2;ratioP2;P2;SDS_P1;SDS_P2;PMS_P1;PMS_P2;Temp;Humidity;BMP_temperature;BMP_pressure;BME280_temperature;BME280_humidity;BME280_pressure;Samples;Min_cycle;Max_cycle;Signal;HPM_P1;HPM_P2
2023/01/28 00:00:26;;;;;;;7.07;4.07;;;5.10;99.90;;;;;;5071881;28;20497;-45
2023/01/28 00:02:52;;;;;;;6.75;4.22;;;5.20;99.90;;;;;;5072078;28;20052;-40
2023/01/28 00:05:17;;;;;;;6.75;4.13;;;5.20;99.90;;;;;;5071702;28;20397;-36
2023/01/28 00:07:43;;;;;;;6.13;4.40;;;5.40;99.90;;;;;;5072180;28;20036;-44
2023/01/28 00:10:10;;;;;;;7.15;4.57;;;5.60;99.90;;;;;;5071709;28;20337;-37
2023/01/28 00:12:35;;;;;;;6.88;4.13;;;5.80;99.90;;;;;;5071525;28;20467;-45
2023/01/28 00:15:01;;;;;;;7.00;3.80;;;6.00;99.90;;;;;;5071652;28;20051;-39
2023/01/28 00:17:27;;;;;;;7.50;4.50;;;6.10;99.90;;;;;;5071763;28;20472;-45
2023/01/28 00:19:52;;;;;;;6.78;4.20;;;6.10;99.90;;;;;;5071598;28;20073;-45
2023/01/28 00:22:18;;;;;;;8.43;4.78;;;6.00;99.90;;;;;;5072170;28;20364;-42
2023/01/28 00:24:45;;;;;;;6.00;3.97;;;5.90;99.90;;;;;;5071429;28;20055;-37
2023/01/28 00:27:11;;;;;;;5.60;4.07;;;5.80;99.90;;;;;;5071193;28;20475;-44
2023/01/28 00:29:37;;;;;;;6.30;3.78;;;5.70;99.90;;;;;;5071544;28;20020;-38
2023/01/28 00:32:03;;;;;;;7.20;4.55;;;5.60;99.90;;;;;;5071439;28;20073;-40
2023/01/28 00:34:28;;;;;;;6.32;4.40;;;5.50;99.90;;;;;;5071285;28;20119;-44
2023/01/28 00:36:57;;;;;;;6.97;4.63;;;5.50;99.90;;;;;;5071123;28;20028;-44
2023/01/28 00:39:26;;;;;;;5.82;3.80;;;5.40;99.90;;;;;;5072456;28;20387;-38
2023/01/28 00:41:53;;;;;;;6.97;4.10;;;5.40;99.90;;;;;;5071304;28;20020;-35
2023/01/28 00:44:19;;;;;;;6.40;4.50;;;5.40;99.90;;;;;;5071275;28;20596;-45
2023/01/28 00:46:45;;;;;;;5.25;3.80;;;5.30;99.90;;;;;;5070861;28;20376;-39
2023/01/28 00:49:11;;;;;;;5.82;3.92;;;5.30;99.90;;;;;;5071938;28;20094;-45
2023/01/28 00:51:37;;;;;;;6.20;3.95;;;5.20;99.90;;;;;;5071141;28;20032;-45
2023/01/28 00:54:02;;;;;;;6.50;4.40;;;5.20;99.90;;;;;;5071168;28;20025;-45
2023/01/28 00:56:28;;;;;;;5.97;3.63;;;5.20;99.90;;;;;;5071214;28;20031;-44
2023/01/28 00:58:54;;;;;;;5.78;4.10;;;5.20;99.90;;;;;;5071011;28;20061;-40
2023/01/28 01:01:22;;;;;;;5.53;4.07;;;5.20;99.90;;;;;;5071892;28;20024;-40
2023/01/28 01:04:01;;;;;;;6.25;3.78;;;5.20;99.90;;;;;;5072308;28;20029;-39
2023/01/28 01:06:31;;;;;;;5.50;3.50;;;5.30;99.90;;;;;;5070905;28;20025;-41
2023/01/28 01:08:57;;;;;;;6.95;4.35;;;5.40;99.90;;;;;;5071043;28;20047;-45
2023/01/28 01:11:23;;;;;;;5.43;3.80;;;5.70;99.90;;;;;;5071027;28;20017;-40
2023/01/28 01:13:59;;;;;;;5.22;4.00;;;5.90;99.90;;;;;;5070797;28;20099;-37
2023/01/28 01:16:30;;;;;;;6.18;3.67;;;6.10;99.90;;;;;;5070688;28;20020;-44
2023/01/28 01:18:56;;;;;;;5.97;3.80;;;6.10;99.90;;;;;;5071026;28;20021;-40
2023/01/28 01:21:25;;;;;;;5.50;3.88;;;6.00;99.90;;;;;;5070906;28;20039;-38
2023/01/28 01:23:52;;;;;;;5.38;4.15;;;5.90;99.90;;;;;;5070844;28;20032;-44
2023/01/28 01:26:17;;;;;;;5.65;3.60;;;5.80;99.90;;;;;;5070648;28;20042;-36
2023/01/28 01:28:43;;;;;;;5.45;3.60;;;5.70;99.90;;;;;;5071037;28;20025;-44
2023/01/28 01:31:15;;;;;;;5.03;3.58;;;5.70;99.90;;;;;;5071400;28;20111;-38
2023/01/28 01:33:45;;;;;;;6.40;4.13;;;5.60;99.90;;;;;;5069955;28;20111;-45
2023/01/28 01:36:13;;;;;;;5.70;3.80;;;5.50;99.90;;;;;;5071517;28;20024;-38
2023/01/28 01:38:39;;;;;;;6.03;3.90;;;5.50;99.90;;;;;;5071610;28;20024;-44
2023/01/28 01:41:05;;;;;;;5.78;3.80;;;5.40;99.90;;;;;;5070923;28;20013;-42
2023/01/28 01:44:05;;;;;;;5.70;4.03;;;5.40;99.90;;;;;;5070987;28;20116;-44
2023/01/28 01:46:40;;;;;;;5.35;3.97;;;5.30;99.90;;;;;;5069101;28;20427;-38
2023/01/28 01:49:20;;;;;;;4.50;3.40;;;5.30;99.90;;;;;;5070500;28;20033;-41
2023/01/28 01:51:48;;;;;;;5.40;3.63;;;5.20;99.90;;;;;;5070674;28;20036;-42
2023/01/28 01:54:15;;;;;;;4.88;3.58;;;5.20;99.90;;;;;;5070535;28;20035;-42
2023/01/28 01:56:43;;;;;;;5.63;3.65;;;5.20;99.90;;;;;;5070342;28;20027;-37
2023/01/28 01:59:16;;;;;;;5.25;3.78;;;5.20;99.90;;;;;;5071013;28;20078;-34
2023/01/28 02:01:44;;;;;;;5.90;3.67;;;5.10;99.90;;;;;;5070926;28;20016;-44
2023/01/28 02:04:29;;;;;;;4.32;3.40;;;5.20;99.90;;;;;;5073129;28;20263;-42
2023/01/28 02:06:57;;;;;;;4.82;3.67;;;5.30;99.90;;;;;;5074219;28;20098;-36
2023/01/28 02:09:28;;;;;;;5.47;3.45;;;5.50;99.90;;;;;;5073943;28;20502;-45
2023/01/28 02:12:12;;;;;;;5.65;4.00;;;5.70;99.90;;;;;;5073976;28;20055;-39
2023/01/28 02:14:41;;;;;;;5.43;3.50;;;6.00;99.90;;;;;;5074048;28;20562;-45
2023/01/28 02:17:07;;;;;;;4.47;3.42;;;6.10;99.90;;;;;;5074036;28;20032;-34
2023/01/28 02:19:40;;;;;;;8.13;3.60;;;6.10;99.90;;;;;;5073748;28;20490;-45
2023/01/28 02:22:38;;;;;;;4.10;3.07;;;6.00;99.90;;;;;;5073900;28;20390;-45
2023/01/28 02:25:33;;;;;;;5.03;3.60;;;5.90;99.90;;;;;;5074233;28;20095;-39
2023/01/28 02:28:25;;;;;;;4.43;3.17;;;5.80;99.90;;;;;;5073647;28;20103;-43
2023/01/28 02:31:07;;;;;;;4.10;3.13;;;5.70;99.90;;;;;;5073554;28;20016;-40
2023/01/28 02:33:55;;;;;;;5.35;3.35;;;5.60;99.90;;;;;;5073664;28;20174;-35
2023/01/28 02:36:20;;;;;;;5.40;3.58;;;5.50;99.90;;;;;;5073406;28;20510;-39
2023/01/28 02:38:49;;;;;;;5.43;3.60;;;5.40;99.90;;;;;;5073426;28;20025;-44
2023/01/28 02:41:26;;;;;;;5.28;3.30;;;5.40;99.90;;;;;;5073907;28;20023;-33
2023/01/28 02:43:52;;;;;;;4.50;3.50;;;5.40;99.90;;;;;;5073917;28;20020;-41
2023/01/28 02:49:25;;;;;;;4.00;3.08;;;5.30;99.90;;;;;;5074629;28;20032;-44
2023/01/28 02:52:03;;;;;;;5.35;3.75;;;5.20;99.90;;;;;;5073746;28;20028;-37
2023/01/28 02:54:39;;;;;;;6.03;3.65;;;5.20;99.90;;;;;;5073314;28;20028;-41
2023/01/28 02:57:34;;;;;;;4.60;3.45;;;5.20;99.90;;;;;;5072875;28;20033;-41
2023/01/28 03:00:26;;;;;;;4.78;3.28;;;5.20;99.90;;;;;;5070577;28;20406;-43
2023/01/28 03:03:14;;;;;;;5.57;3.72;;;5.10;99.90;;;;;;5073399;28;20482;-44
2023/01/28 03:06:02;;;;;;;4.88;3.40;;;5.20;99.90;;;;;;5072954;28;20498;-45
2023/01/28 03:36:49;;;;;;;5.25;3.40;;;5.50;99.90;;;;;;5072826;28;20027;-42
2023/01/28 03:39:17;;;;;;;3.65;2.88;;;5.50;99.90;;;;;;5072341;28;20024;-45
2023/01/28 03:42:14;;;;;;;3.05;2.67;;;5.40;99.90;;;;;;5073033;28;20100;-45
2023/01/28 03:44:52;;;;;;;4.32;3.05;;;5.30;99.90;;;;;;5072043;28;20028;-44
2023/01/28 03:47:28;;;;;;;4.78;3.33;;;5.30;99.90;;;;;;5072073;28;20027;-39
2023/01/28 03:49:55;;;;;;;3.60;2.63;;;5.30;99.90;;;;;;5072673;28;20024;-41
2023/01/28 03:52:29;;;;;;;3.92;3.20;;;5.20;99.90;;;;;;5072190;28;20039;-34
2023/01/28 03:54:55;;;;;;;4.93;3.55;;;5.20;99.90;;;;;;5072083;28;20048;-38
2023/01/28 03:57:24;;;;;;;3.80;3.13;;;5.20;99.90;;;;;;5071866;28;20124;-39
2023/01/28 03:59:51;;;;;;;3.92;3.22;;;5.10;99.90;;;;;;5071860;28;20432;-44
2023/01/28 04:02:21;;;;;;;4.63;3.30;;;5.10;99.90;;;;;;5071867;28;20138;-36
2023/01/28 04:04:47;;;;;;;5.07;3.58;;;5.20;99.90;;;;;;5072613;28;20021;-40
2023/01/28 04:07:14;;;;;;;4.18;3.28;;;5.30;99.90;;;;;;5071533;28;20021;-41
2023/01/28 04:09:40;;;;;;;4.88;3.55;;;5.50;99.90;;;;;;5072041;28;20020;-39
2023/01/28 04:12:06;;;;;;;4.55;3.35;;;5.70;99.90;;;;;;5071774;28;20138;-34
2023/01/28 04:14:32;;;;;;;4.85;3.05;;;6.00;99.90;;;;;;5071803;28;20509;-45
2023/01/28 04:16:58;;;;;;;4.28;3.05;;;6.10;99.90;;;;;;5072102;28;20020;-43
2023/01/28 04:19:24;;;;;;;3.45;2.63;;;6.10;99.90;;;;;;5071813;28;20424;-39
2023/01/28 04:21:52;;;;;;;4.25;3.03;;;6.00;99.90;;;;;;5071512;28;20070;-35
2023/01/28 04:24:19;;;;;;;4.07;3.20;;;5.90;99.90;;;;;;5072440;28;20491;-45
2023/01/28 04:26:44;;;;;;;4.68;3.20;;;5.90;99.90;;;;;;5070965;28;20028;-40
2023/01/28 04:29:10;;;;;;;3.88;2.90;;;5.80;99.90;;;;;;5070032;28;20039;-45
2023/01/28 04:31:35;;;;;;;4.43;3.28;;;5.60;99.90;;;;;;5071327;28;20029;-43
2023/01/28 04:34:01;;;;;;;4.97;3.22;;;5.60;99.90;;;;;;5071792;28;20036;-45
2023/01/28 04:36:27;;;;;;;3.85;2.90;;;5.50;99.90;;;;;;5071626;28;20029;-36
2023/01/28 04:38:52;;;;;;;4.13;2.90;;;5.40;99.90;;;;;;5071673;28;20016;-45
2023/01/28 04:41:18;;;;;;;4.95;3.75;;;5.40;99.90;;;;;;5071229;28;20016;-44
2023/01/28 04:43:44;;;;;;;4.90;3.28;;;5.40;99.90;;;;;;5071096;28;20559;-42
2023/01/28 04:46:09;;;;;;;4.65;3.05;;;5.30;99.90;;;;;;5071145;28;20513;-45
2023/01/28 04:48:35;;;;;;;4.57;3.40;;;5.30;99.90;;;;;;5071244;28;20034;-38
2023/01/28 04:51:02;;;;;;;5.18;3.30;;;5.20;99.90;;;;;;5071590;28;20032;-44
2023/01/28 04:53:28;;;;;;;4.97;3.10;;;5.20;99.90;;;;;;5071335;28;20375;-43
2023/01/28 04:55:53;;;;;;;4.53;3.33;;;5.20;99.90;;;;;;5070975;28;20043;-44
2023/01/28 04:58:19;;;;;;;4.90;3.30;;;5.20;99.90;;;;;;5071176;28;20090;-44
2023/01/28 05:00:45;;;;;;;4.53;3.13;;;5.10;99.90;;;;;;5071114;28;20427;-44
2023/01/28 05:03:10;;;;;;;5.05;3.00;;;5.10;99.90;;;;;;5071079;28;20056;-44
2023/01/28 05:05:36;;;;;;;4.55;3.40;;;5.20;99.90;;;;;;5071055;28;20052;-35
2023/01/28 05:08:01;;;;;;;3.92;2.92;;;5.30;99.90;;;;;;5071072;28;20028;-45
2023/01/28 05:10:27;;;;;;;4.15;3.20;;;5.60;99.90;;;;;;5072132;28;20021;-40
2023/01/28 05:12:53;;;;;;;5.20;3.85;;;5.80;99.90;;;;;;5070948;28;20052;-39
2023/01/28 05:15:19;;;;;;;4.57;3.28;;;6.00;99.90;;;;;;5070999;28;20032;-42
2023/01/28 05:17:45;;;;;;;4.05;2.95;;;6.10;99.90;;;;;;5070747;28;20020;-45
2023/01/28 05:20:12;;;;;;;5.07;3.25;;;6.10;99.90;;;;;;5072412;28;20481;-36
2023/01/28 05:22:38;;;;;;;3.33;2.67;;;6.00;99.90;;;;;;5072393;28;20439;-45
2023/01/28 05:25:05;;;;;;;3.67;2.80;;;5.90;99.90;;;;;;5071200;28;20040;-36
2023/01/28 05:27:31;;;;;;;5.80;3.65;;;5.80;99.90;;;;;;5070781;28;20028;-45
2023/01/28 05:29:57;;;;;;;4.32;2.75;;;5.70;99.90;;;;;;5071540;28;20044;-37
2023/01/28 05:32:23;;;;;;;4.22;3.40;;;5.60;99.90;;;;;;5070736;28;20040;-39
2023/01/28 05:34:49;;;;;;;4.18;3.22;;;5.60;99.90;;;;;;5070581;28;20024;-45
2023/01/28 05:37:15;;;;;;;4.10;2.83;;;5.50;99.90;;;;;;5070571;28;20086;-39
2023/01/28 05:39:40;;;;;;;4.18;3.47;;;5.40;99.90;;;;;;5074358;28;20066;-35
2023/01/28 05:42:06;;;;;;;4.70;3.55;;;5.40;99.90;;;;;;5074510;28;20374;-45
2023/01/28 05:44:32;;;;;;;4.55;3.78;;;5.30;99.90;;;;;;5074539;28;20119;-45
2023/01/28 05:46:57;;;;;;;5.38;3.63;;;5.30;99.90;;;;;;5074256;28;20100;-45
2023/01/28 05:49:25;;;;;;;5.30;3.60;;;5.30;99.90;;;;;;5074275;28;20089;-45
2023/01/28 05:51:51;;;;;;;5.10;3.45;;;5.20;99.90;;;;;;5074579;28;20078;-43
2023/01/28 05:54:17;;;;;;;4.32;3.00;;;5.20;99.90;;;;;;5075153;28;20111;-40
2023/01/28 05:56:42;;;;;;;4.45;3.28;;;5.20;99.90;;;;;;5074232;28;20108;-45
2023/01/28 05:59:10;;;;;;;4.15;3.15;;;5.20;99.90;;;;;;5075727;28;20047;-45
2023/01/28 06:01:36;;;;;;;3.97;3.25;;;5.10;99.90;;;;;;5075229;28;20101;-45
2023/01/28 06:04:03;;;;;;;4.18;3.28;;;5.20;99.90;;;;;;5073961;28;20068;-41
2023/01/28 06:06:29;;;;;;;3.80;3.30;;;5.30;99.90;;;;;;5073873;28;20158;-35
2023/01/28 06:08:54;;;;;;;4.53;3.47;;;5.50;99.90;;;;;;5074095;28;20020;-39
2023/01/28 06:11:20;;;;;;;4.57;3.38;;;5.70;99.90;;;;;;5074060;28;20089;-37
2023/01/28 06:13:46;;;;;;;4.32;3.25;;;5.90;99.90;;;;;;5074037;28;20425;-36
2023/01/28 06:16:11;;;;;;;4.38;3.47;;;6.00;99.90;;;;;;5073724;28;20108;-39
2023/01/28 06:18:37;;;;;;;5.00;3.33;;;6.00;99.90;;;;;;5074545;28;20039;-38
2023/01/28 06:21:03;;;;;;;4.90;3.50;;;5.90;99.90;;;;;;5074547;28;20032;-45
2023/01/28 06:23:28;;;;;;;4.07;3.17;;;5.90;99.90;;;;;;5074420;28;20047;-40
2023/01/28 06:25:55;;;;;;;4.53;3.53;;;5.80;99.90;;;;;;5074293;28;20051;-44
2023/01/28 06:28:21;;;;;;;4.80;3.70;;;5.70;99.90;;;;;;5073774;28;20082;-38
2023/01/28 06:30:48;;;;;;;5.63;3.90;;;5.60;99.90;;;;;;5073651;28;20134;-44
2023/01/28 06:33:14;;;;;;;3.83;3.33;;;5.60;99.90;;;;;;5073382;28;20112;-36
2023/01/28 06:35:40;;;;;;;3.85;3.28;;;5.50;99.90;;;;;;5073590;28;20153;-44
2023/01/28 06:38:06;;;;;;;5.25;3.65;;;5.40;99.90;;;;;;5073503;28;20017;-45
2023/01/28 06:40:32;;;;;;;5.55;3.83;;;5.40;99.90;;;;;;5073498;28;20027;-36
2023/01/28 06:42:57;;;;;;;4.63;3.50;;;5.30;99.90;;;;;;5073950;28;20127;-39
2023/01/28 06:45:23;;;;;;;5.20;3.47;;;5.30;99.90;;;;;;5073439;28;20082;-43
2023/01/28 06:47:48;;;;;;;4.43;3.70;;;5.20;99.90;;;;;;5073370;28;20254;-43
2023/01/28 06:50:15;;;;;;;5.75;4.38;;;5.20;99.90;;;;;;5073110;28;20079;-38
2023/01/28 06:52:41;;;;;;;4.38;3.53;;;5.20;99.90;;;;;;5073331;28;20025;-43
2023/01/28 06:55:07;;;;;;;4.28;3.65;;;5.20;99.90;;;;;;5073247;28;20501;-40
2023/01/28 06:57:33;;;;;;;3.97;3.58;;;5.10;99.90;;;;;;5073068;28;20032;-42
2023/01/28 06:59:59;;;;;;;4.43;3.20;;;5.20;99.90;;;;;;5073068;28;20029;-45
2023/01/28 07:02:24;;;;;;;5.53;3.90;;;5.10;99.90;;;;;;5073074;28;20523;-40
2023/01/28 07:04:50;;;;;;;5.38;3.88;;;5.20;99.90;;;;;;5073267;28;20016;-38
2023/01/28 07:07:16;;;;;;;4.78;3.60;;;5.30;99.90;;;;;;5073677;28;20488;-40
2023/01/28 07:09:41;;;;;;;5.65;4.05;;;5.50;99.90;;;;;;5072865;28;20027;-40
2023/01/28 07:12:07;;;;;;;4.47;3.28;;;5.80;99.90;;;;;;5072835;28;20025;-37
2023/01/28 07:14:33;;;;;;;5.10;3.65;;;5.90;99.90;;;;;;5072740;28;20056;-40
2023/01/28 07:16:58;;;;;;;5.50;3.70;;;6.00;99.90;;;;;;5072554;28;20479;-39
2023/01/28 07:19:24;;;;;;;5.45;3.50;;;6.00;99.90;;;;;;5072688;28;20146;-42
2023/01/28 07:21:49;;;;;;;5.38;4.05;;;6.00;99.90;;;;;;5072707;28;20513;-37
2023/01/28 07:24:15;;;;;;;4.88;3.42;;;5.80;99.90;;;;;;5073081;28;20038;-44
2023/01/28 07:26:41;;;;;;;5.07;3.90;;;5.70;99.90;;;;;;5072311;28;20040;-41
2023/01/28 07:29:07;;;;;;;5.13;3.67;;;5.60;99.90;;;;;;5072412;28;20108;-40
2023/01/28 07:31:33;;;;;;;5.22;4.18;;;5.60;99.90;;;;;;5072452;28;20119;-38
2023/01/28 07:33:59;;;;;;;5.63;3.47;;;5.50;99.90;;;;;;5072087;28;20154;-42
2023/01/28 07:36:24;;;;;;;5.25;3.88;;;5.50;99.90;;;;;;5074230;28;20027;-40
2023/01/28 07:38:50;;;;;;;5.10;4.05;;;5.40;99.90;;;;;;5072557;28;20530;-37
2023/01/28 07:41:15;;;;;;;5.75;3.80;;;5.30;99.90;;;;;;5072223;28;20013;-43
2023/01/28 07:43:41;;;;;;;4.57;3.45;;;5.30;99.90;;;;;;5072334;28;20120;-42
2023/01/28 07:46:07;;;;;;;5.13;3.83;;;5.30;99.90;;;;;;5072128;28;20035;-42
2023/01/28 07:48:32;;;;;;;6.60;4.15;;;5.20;99.90;;;;;;5072147;28;20540;-39
2023/01/28 07:50:58;;;;;;;5.05;3.80;;;5.20;99.90;;;;;;5072180;28;20017;-38
2023/01/28 07:53:24;;;;;;;5.85;4.05;;;5.20;99.90;;;;;;5072390;28;20020;-44
2023/01/28 07:55:50;;;;;;;5.13;3.67;;;5.10;99.90;;;;;;5072161;28;20078;-35
2023/01/28 07:58:16;;;;;;;6.25;4.20;;;5.10;99.90;;;;;;5071215;28;20483;-44
2023/01/28 08:00:41;;;;;;;4.88;3.75;;;5.30;99.90;;;;;;5071255;28;20052;-39
2023/01/28 08:03:15;;;;;;;5.45;4.05;;;5.50;99.90;;;;;;5071840;28;20551;-44
2023/01/28 08:05:46;;;;;;;5.38;3.85;;;5.60;99.90;;;;;;5072795;28;20039;-36
2023/01/28 08:08:12;;;;;;;5.63;4.05;;;5.70;99.90;;;;;;5071627;28;20386;-40
2023/01/28 08:10:38;;;;;;;5.25;3.90;;;5.70;99.90;;;;;;5071721;28;20020;-42
2023/01/28 08:13:05;;;;;;;5.10;4.15;;;5.70;99.90;;;;;;5071632;28;20025;-43
2023/01/28 08:15:31;;;;;;;5.43;4.25;;;5.60;99.90;;;;;;5071616;28;20020;-43
2023/01/28 08:17:58;;;;;;;4.97;3.70;;;5.50;99.90;;;;;;5072229;28;20475;-44
2023/01/28 08:20:25;;;;;;;5.53;4.18;;;5.50;99.90;;;;;;5071574;28;20020;-41
2023/01/28 08:22:51;;;;;;;6.68;4.60;;;5.40;99.90;;;;;;5071531;28;20103;-44
2023/01/28 08:25:17;;;;;;;5.70;4.22;;;5.40;99.90;;;;;;5071780;28;20509;-40
2023/01/28 08:27:42;;;;;;;5.18;4.07;;;5.40;99.90;;;;;;5071996;28;20082;-39
2023/01/28 08:30:09;;;;;;;5.88;4.25;;;5.40;99.90;;;;;;5071419;28;20028;-36
2023/01/28 08:32:34;;;;;;;5.07;4.22;;;5.50;99.90;;;;;;5071976;28;20522;-40
2023/01/28 08:35:00;;;;;;;6.70;4.22;;;5.60;99.90;;;;;;5071365;28;20094;-34
2023/01/28 08:37:26;;;;;;;5.63;4.05;;;5.60;99.90;;;;;;5071880;28;20033;-39
2023/01/28 08:39:51;;;;;;;6.35;4.70;;;5.60;99.90;;;;;;5071334;28;20024;-43
2023/01/28 08:42:17;;;;;;;6.55;4.55;;;5.60;99.90;;;;;;5071801;28;20035;-42
2023/01/28 08:44:42;;;;;;;5.82;4.32;;;5.50;99.90;;;;;;5073064;28;20078;-35
2023/01/28 08:47:08;;;;;;;6.38;4.22;;;5.50;99.90;;;;;;5071081;28;20020;-44
2023/01/28 08:49:34;;;;;;;5.43;4.15;;;5.40;99.90;;;;;;5071746;28;20066;-44
2023/01/28 08:51:59;;;;;;;6.25;4.22;;;5.40;99.90;;;;;;5071294;28;20111;-40
2023/01/28 08:54:25;;;;;;;6.22;4.35;;;5.30;99.90;;;;;;5071309;28;20090;-44
2023/01/28 08:56:50;;;;;;;5.38;4.18;;;5.40;99.90;;;;;;5071241;28;20027;-43
2023/01/28 08:59:17;;;;;;;7.70;4.60;;;5.50;99.90;;;;;;5071020;28;20029;-38
2023/01/28 09:01:42;;;;;;;6.95;4.63;;;5.60;99.90;;;;;;5071371;28;20020;-44
2023/01/28 09:04:08;;;;;;;6.70;4.80;;;5.60;99.90;;;;;;5072262;28;20080;-35
2023/01/28 09:06:34;;;;;;;6.50;4.65;;;5.60;99.90;;;;;;5071492;28;20024;-39
2023/01/28 09:08:59;;;;;;;6.57;5.00;;;5.60;99.90;;;;;;5071466;28;20444;-35
2023/01/28 09:11:26;;;;;;;15.95;11.00;;;5.60;99.90;;;;;;5071054;28;20036;-34
2023/01/28 09:13:52;;;;;;;15.00;9.65;;;5.50;99.90;;;;;;5075086;28;20112;-35
2023/01/28 09:16:17;;;;;;;13.15;9.35;;;5.20;99.90;;;;;;5074736;28;20147;-42
2023/01/28 09:18:43;;;;;;;13.95;9.77;;;5.10;99.90;;;;;;5075036;28;20078;-43
2023/01/28 09:21:09;;;;;;;16.60;9.85;;;5.00;99.90;;;;;;5075930;28;20027;-39
2023/01/28 09:23:36;;;;;;;14.43;9.93;;;5.10;99.90;;;;;;5074973;28;20031;-35
2023/01/28 09:26:03;;;;;;;14.43;9.43;;;5.30;99.90;;;;;;5074682;28;20490;-42
2023/01/28 09:28:29;;;;;;;13.23;9.00;;;5.40;99.90;;;;;;5074715;28;20035;-42
2023/01/28 09:31:03;;;;;;;11.10;8.98;;;5.30;99.90;;;;;;5074725;28;20025;-44
2023/01/28 09:33:30;;;;;;;12.32;9.07;;;5.40;99.90;;;;;;5074493;28;20033;-42
2023/01/28 09:35:58;;;;;;;13.52;9.00;;;5.40;99.90;;;;;;5074554;28;20028;-34
2023/01/28 09:38:23;;;;;;;13.52;9.02;;;5.40;99.90;;;;;;5074697;28;20021;-35
2023/01/28 09:40:49;;;;;;;14.77;9.63;;;5.30;99.90;;;;;;5075033;28;20028;-37
2023/01/28 09:43:43;;;;;;;12.68;8.48;;;5.30;99.90;;;;;;5074619;28;20100;-35
2023/01/28 09:46:12;;;;;;;12.83;8.90;;;5.30;99.90;;;;;;5074381;28;20086;-43
2023/01/28 09:48:47;;;;;;;11.35;8.55;;;5.30;99.90;;;;;;5074435;28;20540;-40
2023/01/28 09:51:43;;;;;;;13.10;8.73;;;5.30;99.90;;;;;;5074590;28;20066;-43
2023/01/28 09:54:49;;;;;;;12.15;8.70;;;5.50;99.90;;;;;;5075088;28;20487;-34
2023/01/28 09:57:36;;;;;;;9.90;7.80;;;5.50;99.90;;;;;;5071444;28;20033;-35
2023/01/28 10:00:02;;;;;;;11.13;7.88;;;5.50;99.90;;;;;;5074287;28;20064;-34
2023/01/28 10:02:31;;;;;;;14.30;9.15;;;5.50;99.90;;;;;;5074210;28;20027;-43
2023/01/28 10:05:01;;;;;;;12.50;8.55;;;5.50;99.90;;;;;;5074403;28;20024;-43
2023/01/28 10:07:27;;;;;;;12.88;8.45;;;5.40;99.90;;;;;;5074026;28;20067;-35
2023/01/28 10:09:55;;;;;;;12.50;7.95;;;5.40;99.90;;;;;;5074298;28;20033;-39
2023/01/28 10:13:00;;;;;;;10.05;7.70;;;5.40;99.90;;;;;;5074194;28;20016;-35
2023/01/28 10:15:43;;;;;;;11.32;7.97;;;5.30;99.90;;;;;;5074103;28;20020;-35
2023/01/28 10:18:11;;;;;;;9.88;7.07;;;5.50;99.90;;;;;;5073907;28;20027;-40
2023/01/28 10:20:52;;;;;;;11.73;8.27;;;5.60;99.90;;;;;;5073717;28;20488;-36
2023/01/28 10:23:44;;;;;;;10.77;7.43;;;5.60;99.90;;;;;;5073498;28;20504;-35
2023/01/28 10:26:25;;;;;;;10.55;7.18;;;5.60;99.90;;;;;;5073665;28;20089;-36
2023/01/28 10:28:57;;;;;;;9.82;7.35;;;5.50;99.90;;;;;;5073635;28;20028;-37
2023/01/28 10:31:29;;;;;;;11.18;7.75;;;5.50;99.90;;;;;;5073695;28;20029;-35
2023/01/28 10:33:54;;;;;;;11.05;7.78;;;5.50;99.90;;;;;;5073630;28;20031;-43
2023/01/28 10:36:21;;;;;;;9.95;7.38;;;5.50;99.90;;;;;;5073399;28;20020;-41
2023/01/28 10:38:46;;;;;;;8.98;7.05;;;5.40;99.90;;;;;;5073661;28;20028;-36
2023/01/28 10:41:19;;;;;;;10.13;7.22;;;5.40;99.90;;;;;;5074652;28;20386;-38
2023/01/28 10:43:47;;;;;;;9.63;7.35;;;5.50;99.90;;;;;;5073548;28;20032;-34
2023/01/28 10:46:20;;;;;;;11.25;7.70;;;5.60;99.90;;;;;;5073191;28;20104;-43
2023/01/28 10:48:52;;;;;;;10.98;7.50;;;5.70;99.90;;;;;;5074455;28;20024;-42
2023/01/28 10:51:29;;;;;;;11.20;7.63;;;5.70;99.90;;;;;;5073438;28;20024;-40
2023/01/28 10:53:54;;;;;;;9.05;6.35;;;5.60;99.90;;;;;;5073279;28;20017;-43
2023/01/28 10:56:31;;;;;;;10.20;6.80;;;5.60;99.90;;;;;;5073077;28;20017;-40
2023/01/28 10:59:17;;;;;;;10.18;7.13;;;5.50;99.90;;;;;;5075085;28;20024;-38
2023/01/28 11:01:50;;;;;;;8.55;6.20;;;5.50;99.90;;;;;;5073192;28;20016;-35
2023/01/28 11:04:21;;;;;;;9.93;7.32;;;5.50;99.90;;;;;;5073077;28;20055;-33
2023/01/28 11:07:03;;;;;;;10.90;6.90;;;5.40;99.90;;;;;;5073594;28;20021;-32
2023/01/28 11:09:31;;;;;;;9.80;6.55;;;5.40;99.90;;;;;;5074345;28;20051;-37
2023/01/28 11:11:58;;;;;;;9.48;7.15;;;5.60;99.90;;;;;;5072869;28;20401;-34
2023/01/28 11:14:26;;;;;;;10.10;7.55;;;5.70;99.90;;;;;;5073302;28;20028;-35
2023/01/28 11:16:54;;;;;;;9.25;6.75;;;5.70;99.90;;;;;;5072463;28;20077;-43
2023/01/28 11:19:25;;;;;;;9.90;7.22;;;5.70;99.90;;;;;;5072742;28;20052;-41
2023/01/28 11:21:54;;;;;;;8.80;6.22;;;5.60;99.90;;;;;;5072793;28;20096;-40
2023/01/28 11:24:25;;;;;;;7.78;6.25;;;5.60;99.90;;;;;;5073174;28;20042;-37
2023/01/28 11:26:56;;;;;;;9.18;6.57;;;5.50;99.90;;;;;;5072341;28;20024;-43
2023/01/28 11:29:31;;;;;;;9.10;6.57;;;5.50;99.90;;;;;;5072466;28;20035;-43
2023/01/28 11:31:58;;;;;;;8.93;6.55;;;5.50;99.90;;;;;;5072628;28;20025;-43
2023/01/28 11:34:28;;;;;;;11.10;6.85;;;5.40;99.90;;;;;;5072145;28;20025;-36
2023/01/28 11:37:10;;;;;;;9.45;6.65;;;5.50;99.90;;;;;;5072951;28;20464;-43
2023/01/28 11:39:35;;;;;;;9.15;6.38;;;5.60;99.90;;;;;;5073979;28;20031;-44
2023/01/28 11:42:11;;;;;;;9.60;6.70;;;5.70;99.90;;;;;;5072320;28;20025;-43
2023/01/28 11:44:38;;;;;;;9.15;6.30;;;5.70;99.90;;;;;;5072327;28;20024;-34
2023/01/28 11:47:12;;;;;;;16.67;11.18;;;5.70;99.90;;;;;;5071983;28;20024;-32
2023/01/28 11:49:58;;;;;;;15.48;11.45;;;5.50;99.90;;;;;;5072252;28;20098;-39
2023/01/28 11:52:49;;;;;;;17.25;11.82;;;5.30;99.90;;;;;;5070893;28;20024;-38
2023/01/28 11:55:23;;;;;;;17.40;12.75;;;5.20;99.90;;;;;;5072172;28;20508;-37
2023/01/28 11:58:12;;;;;;;17.33;11.50;;;5.10;99.90;;;;;;5072077;28;20172;-40
2023/01/28 12:01:02;;;;;;;17.45;12.02;;;5.10;99.90;;;;;;5071264;28;20052;-32
2023/01/28 12:03:52;;;;;;;16.25;11.45;;;5.30;99.90;;;;;;5071986;28;20028;-35
2023/01/28 12:07:02;;;;;;;18.52;11.27;;;5.40;99.90;;;;;;5071891;28;20027;-42
2023/01/28 12:10:00;;;;;;;16.05;10.80;;;5.50;99.90;;;;;;5071451;28;20051;-42
2023/01/28 12:12:56;;;;;;;16.80;12.02;;;5.50;99.90;;;;;;5071737;28;20040;-32
2023/01/28 12:15:37;;;;;;;15.43;10.50;;;5.50;99.90;;;;;;5072163;28;20036;-36
2023/01/28 12:18:12;;;;;;;15.30;10.57;;;5.50;99.90;;;;;;5071566;28;20017;-40
2023/01/28 12:20:51;;;;;;;15.88;11.30;;;5.50;99.90;;;;;;5071449;28;20017;-36
2023/01/28 12:23:36;;;;;;;15.00;10.75;;;5.40;99.90;;;;;;5072278;28;20071;-40
2023/01/28 12:26:01;;;;;;;;;;;5.40;99.90;;;;;;5072854;28;20458;-39
2023/01/28 12:28:40;;;;;;;20.83;11.10;;;5.50;99.90;;;;;;5072428;28;19908;-35
2023/01/28 12:31:46;;;;;;;15.35;10.63;;;5.60;99.90;;;;;;5071413;28;20028;-34
2023/01/28 12:34:43;;;;;;;15.63;10.65;;;5.70;99.90;;;;;;5071923;28;20382;-42
2023/01/28 12:37:27;;;;;;;13.73;9.77;;;5.70;99.90;;;;;;5072016;28;20082;-41
2023/01/28 12:40:29;;;;;;;15.90;10.15;;;5.70;99.90;;;;;;5071369;28;20557;-35
2023/01/28 12:43:19;;;;;;;13.85;10.38;;;5.70;99.90;;;;;;5071684;28;20395;-42
2023/01/28 12:45:59;;;;;;;13.98;9.82;;;5.70;99.90;;;;;;5071192;28;20028;-33
2023/01/28 12:48:31;;;;;;;14.88;10.40;;;5.60;99.90;;;;;;5070990;28;20054;-35
2023/01/28 12:51:12;;;;;;;13.73;10.00;;;5.60;99.90;;;;;;5071343;28;20127;-34
2023/01/28 12:53:53;;;;;;;15.02;10.50;;;5.50;99.90;;;;;;5071301;28;20401;-32
2023/01/28 12:56:28;;;;;;;13.75;9.52;;;5.60;99.90;;;;;;5071046;28;20024;-37
2023/01/28 12:59:05;;;;;;;12.50;9.30;;;5.80;99.90;;;;;;5071105;28;20032;-42
2023/01/28 13:01:47;;;;;;;15.77;10.43;;;5.80;99.90;;;;;;5071180;28;20531;-33
2023/01/28 13:04:29;;;;;;;12.07;9.05;;;5.80;99.90;;;;;;5071126;28;20067;-37
2023/01/28 13:07:05;;;;;;;13.75;9.23;;;5.80;99.90;;;;;;5071001;28;20021;-38
2023/01/28 13:09:35;;;;;;;13.70;9.25;;;5.80;99.90;;;;;;5071083;28;20017;-35
2023/01/28 13:12:02;;;;;;;14.55;9.32;;;5.70;99.90;;;;;;5071126;28;20024;-34
2023/01/28 13:14:31;;;;;;;13.82;9.30;;;5.70;99.90;;;;;;5071060;28;20103;-34
2023/01/28 13:17:12;;;;;;;12.90;9.15;;;5.60;99.90;;;;;;5070687;28;20031;-41
2023/01/28 13:19:41;;;;;;;16.52;9.20;;;5.60;99.90;;;;;;5071185;28;20433;-38
2023/01/28 13:22:27;;;;;;;13.48;9.20;;;5.60;99.90;;;;;;5071651;28;20078;-42
2023/01/28 13:24:52;;;;;;;12.65;8.77;;;5.70;99.90;;;;;;5071024;28;20057;-38
2023/01/28 13:27:27;;;;;;;14.05;9.48;;;5.80;99.90;;;;;;5071186;28;20021;-35
2023/01/28 13:30:00;;;;;;;;;;;5.80;99.90;;;;;;5071545;28;20028;-38
2023/01/28 13:32:59;;;;;;;12.73;9.13;;;5.90;99.90;;;;;;5071496;28;19985;-33
2023/01/28 13:35:37;;;;;;;14.20;9.57;;;5.80;99.90;;;;;;5070786;28;20028;-42
2023/01/28 13:38:19;;;;;;;14.43;9.05;;;5.70;99.90;;;;;;5070997;28;20437;-40
2023/01/28 13:40:59;;;;;;;13.10;9.27;;;5.70;99.90;;;;;;5071206;28;20025;-42
2023/01/28 13:43:31;;;;;;;11.50;8.18;;;5.70;99.90;;;;;;5070841;28;20039;-36
2023/01/28 13:46:04;;;;;;;12.27;7.90;;;5.60;99.90;;;;;;5070496;28;20032;-42